Terminal Aerodrome Forecast
Issued by NWS

Home | Current Version | Previous Version | Text Only | Print | Product List | Glossary On
Versions: 1 2 3 4 5 6 7 8 9 10 11 12 13 14 15 16 17
000
FTUS43 KGLD 042339
TAFMCK
TAF
KMCK 042339Z 0500/0524 20006KT P6SM SKC
     FM050400 20008KT P6SM SCT110 SCT250 WS020/22040KT
     FM050700 21008KT P6SM SCT110 SCT250
     FM051700 31005KT P6SM BKN100
     FM051800 34009KT P6SM BKN100
     FM052100 34013G18KT P6SM SCT230=

USA.gov is the U.S. government's official web portal to all federal, state and local government web resources and services.